Time;durP1;ratioP1;P1;durP2;ratioP2;P2;SDS_P1;SDS_P2;PMS_P1;PMS_P2;Temp;Humidity;BMP_temperature;BMP_pressure;BME280_temperature;BME280_humidity;BME280_pressure;Samples;Min_cycle;Max_cycle;Signal;HPM_P1;HPM_P2
2022/06/24 00:02:19;;;;;;;;;;;;;;;20.30;60.84;96202.22;6370411;28;19930;-67
2022/06/24 00:05:23;;;;;;;;;;;;;;;20.45;60.70;96213.78;6370974;28;19923;-68
2022/06/24 00:08:28;;;;;;;;;;;;;;;20.24;61.95;96210.91;6370936;28;19923;-67
2022/06/24 00:11:34;;;;;;;;;;;;;;;20.18;63.22;96202.59;6372298;27;19923;-67
2022/06/24 00:14:39;;;;;;;;;;;;;;;20.12;63.14;96208.63;6375796;27;19923;-67
2022/06/24 00:17:44;;;;;;;;;;;;;;;19.98;63.30;96219.22;6375740;27;19941;-67
2022/06/24 00:20:50;;;;;;;;;;;;;;;19.94;63.19;96224.91;6375629;27;20376;-68
2022/06/24 00:23:53;;;;;;;;;;;;;;;19.92;62.83;96234.09;6375589;27;19923;-67
2022/06/24 00:26:57;;;;;;;;;;;;;;;19.96;62.65;96227.41;6375479;27;19966;-67
2022/06/24 00:30:06;;;;;;;;;;;;;;;20.04;62.30;96248.75;6374516;27;20082;-67
2022/06/24 00:33:12;;;;;;;;;;;;;;;20.14;62.64;96238.66;6375143;27;20017;-66
2022/06/24 00:36:15;;;;;;;;;;;;;;;20.26;62.05;96246.28;6373750;27;20012;-67
2022/06/24 00:39:19;;;;;;;;;;;;;;;20.41;61.67;96236.53;6374298;27;19929;-67
2022/06/24 00:42:23;;;;;;;;;;;;;;;20.54;61.59;96249.34;6375312;27;19924;-67
2022/06/24 00:45:34;;;;;;;;;;;;;;;20.68;61.48;96250.41;6374788;27;19931;-67
2022/06/24 00:48:41;;;;;;;;;;;;;;;20.83;61.21;96238.78;6374839;27;20316;-68
2022/06/24 00:51:43;;;;;;;;;;;;;;;20.98;60.85;96251.38;6373454;27;19930;-67
2022/06/24 00:54:46;;;;;;;;;;;;;;;21.07;60.69;96267.16;6374658;27;19923;-68
2022/06/24 00:57:48;;;;;;;;;;;;;;;21.20;60.13;96271.06;6373639;27;20305;-67
2022/06/24 01:00:51;;;;;;;;;;;;;;;21.27;60.46;96272.03;6373894;27;19923;-67
2022/06/24 01:03:53;;;;;;;;;;;;;;;21.37;60.21;96280.63;6373867;27;20545;-68
2022/06/24 01:06:54;;;;;;;;;;;;;;;21.47;59.67;96291.94;6373557;27;19924;-67
2022/06/24 01:09:58;;;;;;;;;;;;;;;21.50;59.92;96294.25;6374594;27;19923;-68
2022/06/24 01:13:02;;;;;;;;;;;;;;;21.58;59.58;96295.19;6374417;27;19930;-68
2022/06/24 01:16:08;;;;;;;;;;;;;;;21.68;59.39;96301.09;6374095;27;19927;-67
2022/06/24 01:19:15;;;;;;;;;;;;;;;21.82;59.12;96296.78;6374301;27;20007;-68
2022/06/24 01:22:23;;;;;;;;;;;;;;;21.95;58.95;96303.16;6372970;27;19930;-68
2022/06/24 01:25:24;;;;;;;;;;;;;;;22.08;58.30;96307.03;6373033;27;19924;-68
2022/06/24 01:28:25;;;;;;;;;;;;;;;22.16;57.97;96309.59;6373123;27;19967;-67
2022/06/24 01:31:27;;;;;;;;;;;;;;;22.15;58.10;96313.31;6373211;27;19924;-68
2022/06/24 01:34:28;;;;;;;;;;;;;;;22.09;58.17;96314.06;6373149;27;20352;-67
2022/06/24 01:37:32;;;;;;;;;;;;;;;22.06;57.87;96304.53;6355590;27;19924;-68
2022/06/24 01:40:36;;;;;;;;;;;;;;;21.94;58.07;96296.16;6372847;27;20336;-67
2022/06/24 01:43:37;;;;;;;;;;;;;;;21.74;58.23;96301.22;6372965;27;19925;-67
2022/06/24 01:46:41;;;;;;;;;;;;;;;21.66;58.71;96292.44;6372498;27;19928;-67
2022/06/24 01:49:42;;;;;;;;;;;;;;;21.60;58.52;96282.44;6373138;27;20010;-67
2022/06/24 01:52:43;;;;;;;;;;;;;;;21.60;58.58;96287.78;6372607;27;19923;-67
2022/06/24 01:55:47;;;;;;;;;;;;;;;21.61;58.52;96289.47;6373529;27;20316;-67
2022/06/24 01:58:54;;;;;;;;;;;;;;;21.67;58.18;96286.06;6373114;27;20392;-67
2022/06/24 02:01:58;;;;;;;;;;;;;;;21.81;57.68;96277.19;6372132;27;19931;-68
2022/06/24 02:05:01;;;;;;;;;;;;;;;22.03;57.30;96291.53;6373191;27;19930;-66
2022/06/24 02:08:02;;;;;;;;;;;;;;;22.32;56.63;96274.59;6372039;27;19929;-67
2022/06/24 02:14:28;;;;;;;;;;;;;;;22.81;55.24;96260.50;6372873;27;20320;-67
2022/06/24 02:17:30;;;;;;;;;;;;;;;23.03;54.76;96258.69;6371511;27;19923;-68
2022/06/24 02:20:34;;;;;;;;;;;;;;;23.29;54.19;96262.63;6371605;27;19923;-67
2022/06/24 02:23:35;;;;;;;;;;;;;;;23.31;53.97;96250.66;6371303;27;19923;-68
2022/06/24 02:26:39;;;;;;;;;;;;;;;23.46;53.66;96253.25;6372621;27;19923;-68
2022/06/24 02:29:41;;;;;;;;;;;;;;;23.65;53.17;96251.75;6372309;27;19923;-67
2022/06/24 02:32:44;;;;;;;;;;;;;;;23.61;53.30;96255.84;6372332;27;19923;-67
2022/06/24 02:35:50;;;;;;;;;;;;;;;23.55;53.29;96251.25;6371352;27;20407;-68
2022/06/24 02:38:51;;;;;;;;;;;;;;;23.58;53.38;96264.31;6370347;27;19924;-67
2022/06/24 02:41:52;;;;;;;;;;;;;;;23.61;53.43;96271.97;6370968;27;19930;-67
2022/06/24 02:44:56;;;;;;;;;;;;;;;23.74;53.09;96266.69;6370840;27;19930;-67
2022/06/24 02:47:59;;;;;;;;;;;;;;;23.89;53.04;96263.06;6371977;27;19931;-67
2022/06/24 02:51:06;;;;;;;;;;;;;;;23.90;52.89;96257.50;6370782;27;20014;-68
2022/06/24 02:54:12;;;;;;;;;;;;;;;23.86;52.87;96260.78;6371448;27;19931;-67
2022/06/24 02:57:14;;;;;;;;;;;;;;;23.99;52.62;96268.94;6370767;27;19973;-68
2022/06/24 03:00:15;;;;;;;;;;;;;;;24.36;51.94;96273.03;6371537;27;19923;-67
2022/06/24 03:03:21;;;;;;;;;;;;;;;24.72;51.23;96268.44;6371288;27;19923;-67
2022/06/24 03:06:22;;;;;;;;;;;;;;;24.83;50.90;96271.34;6370649;27;19930;-67
2022/06/24 03:09:29;;;;;;;;;;;;;;;24.92;50.44;96273.88;6371054;27;19923;-68
2022/06/24 03:12:34;;;;;;;;;;;;;;;25.00;50.24;96276.38;6370929;27;19924;-67
2022/06/24 03:15:38;;;;;;;;;;;;;;;25.13;50.32;96265.59;6371523;27;19924;-68
2022/06/24 03:18:44;;;;;;;;;;;;;;;25.35;49.59;96262.75;6371271;27;19923;-67
2022/06/24 03:21:53;;;;;;;;;;;;;;;25.66;49.36;96259.41;6371299;27;19923;-67
2022/06/24 03:24:54;;;;;;;;;;;;;;;26.01;48.32;96240.28;6370484;27;19923;-67
2022/06/24 03:28:04;;;;;;;;;;;;;;;26.16;47.78;96255.19;6371538;28;20308;-67
2022/06/24 03:31:05;;;;;;;;;;;;;;;26.25;47.89;96247.69;6369351;28;20316;-67
2022/06/24 03:34:09;;;;;;;;;;;;;;;26.29;47.35;96248.91;6370958;28;19923;-67
2022/06/24 03:37:13;;;;;;;;;;;;;;;26.25;48.03;96247.69;6371273;28;20040;-67
2022/06/24 03:40:16;;;;;;;;;;;;;;;26.25;47.85;96253.09;6371120;28;19923;-68
2022/06/24 03:43:18;;;;;;;;;;;;;;;26.33;47.50;96254.72;6370623;28;19958;-68
2022/06/24 03:46:21;;;;;;;;;;;;;;;26.55;47.15;96263.34;6373971;27;19923;-67
2022/06/24 03:49:23;;;;;;;;;;;;;;;26.82;47.01;96264.06;6356914;27;19981;-67
2022/06/24 03:52:27;;;;;;;;;;;;;;;26.99;46.54;96267.06;6375906;27;19930;-66
2022/06/24 03:55:32;;;;;;;;;;;;;;;27.04;46.21;96278.03;6375807;27;19923;-67
2022/06/24 03:58:33;;;;;;;;;;;;;;;27.05;46.32;96279.69;6375759;27;19930;-66
2022/06/24 04:01:38;;;;;;;;;;;;;;;27.25;46.00;96275.00;6376012;27;19923;-68
2022/06/24 04:04:41;;;;;;;;;;;;;;;27.56;45.34;96262.50;6375982;27;20384;-68
2022/06/24 04:07:44;;;;;;;;;;;;;;;28.01;44.93;96262.31;6375476;27;19996;-68
2022/06/24 04:10:48;;;;;;;;;;;;;;;28.36;44.24;96280.63;6375849;27;19923;-68
2022/06/24 04:13:49;;;;;;;;;;;;;;;28.61;43.81;96273.28;6375417;27;19923;-67
2022/06/24 04:16:53;;;;;;;;;;;;;;;28.63;43.17;96265.75;6375836;27;19923;-67
2022/06/24 04:19:58;;;;;;;;;;;;;;;28.47;43.84;96279.91;6375527;27;19989;-66
2022/06/24 04:23:02;;;;;;;;;;;;;;;28.36;43.94;96281.44;6375287;27;19946;-66
2022/06/24 04:26:05;;;;;;;;;;;;;;;28.42;44.02;96290.56;6376229;27;20444;-66
2022/06/24 04:29:11;;;;;;;;;;;;;;;28.50;43.71;96278.63;6374783;27;19923;-67
2022/06/24 04:32:12;;;;;;;;;;;;;;;28.65;43.39;96290.72;6356909;27;19931;-68
2022/06/24 04:35:13;;;;;;;;;;;;;;;28.75;43.04;96283.94;6374288;27;19923;-67
2022/06/24 04:38:16;;;;;;;;;;;;;;;28.83;42.91;96275.50;6373822;27;19923;-66
2022/06/24 04:41:20;;;;;;;;;;;;;;;28.81;42.57;96283.00;6374443;27;20404;-67
2022/06/24 04:44:23;;;;;;;;;;;;;;;28.93;42.51;96281.19;6374973;27;19961;-68
2022/06/24 04:47:28;;;;;;;;;;;;;;;29.37;41.59;96286.41;6373961;27;19923;-66
2022/06/24 04:50:31;;;;;;;;;;;;;;;31.05;37.59;96286.63;6374700;27;20338;-68
2022/06/24 04:53:35;;;;;;;;;;;;;;;33.37;34.29;96293.22;6373548;27;19927;-67
2022/06/24 04:56:39;;;;;;;;;;;;;;;35.89;31.40;96302.38;6373680;27;20418;-67
2022/06/24 04:59:40;;;;;;;;;;;;;;;37.90;28.78;96305.94;6373420;27;19946;-67
2022/06/24 05:02:42;;;;;;;;;;;;;;;39.35;27.53;96306.84;6373701;27;19929;-67
2022/06/24 05:05:43;;;;;;;;;;;;;;;40.31;25.95;96306.41;6373227;27;19923;-67
2022/06/24 05:08:49;;;;;;;;;;;;;;;41.64;24.63;96295.34;6373688;27;19927;-67
2022/06/24 05:11:54;;;;;;;;;;;;;;;43.50;22.43;96297.13;6374151;27;19923;-67
2022/06/24 05:15:01;;;;;;;;;;;;;;;44.72;20.69;96296.09;6374293;27;19927;-67
2022/06/24 05:18:02;;;;;;;;;;;;;;;46.00;19.98;96296.72;6374186;27;19923;-66
2022/06/24 05:21:08;;;;;;;;;;;;;;;47.29;19.05;96298.25;6374683;27;19954;-67
2022/06/24 05:24:12;;;;;;;;;;;;;;;49.09;16.76;96304.75;6373873;27;19923;-67
2022/06/24 05:27:19;;;;;;;;;;;;;;;50.09;15.68;96295.75;6373883;27;19923;-66
2022/06/24 05:30:23;;;;;;;;;;;;;;;50.06;15.49;96291.72;6373099;27;20430;-68
2022/06/24 05:33:27;;;;;;;;;;;;;;;49.14;16.45;96290.50;6373349;27;20339;-67
2022/06/24 05:36:28;;;;;;;;;;;;;;;48.31;16.51;96288.47;6373079;27;19930;-67
2022/06/24 05:39:29;;;;;;;;;;;;;;;47.41;16.40;96284.31;6373914;27;19930;-67
2022/06/24 05:42:31;;;;;;;;;;;;;;;46.47;17.31;96274.94;6373580;27;20026;-66
2022/06/24 05:45:34;;;;;;;;;;;;;;;45.40;18.23;96280.19;6372684;27;19919;-66
2022/06/24 05:48:37;;;;;;;;;;;;;;;45.52;17.95;96273.09;6372744;27;19927;-66
2022/06/24 05:51:40;;;;;;;;;;;;;;;44.88;18.15;96272.22;6372633;27;19937;-67
2022/06/24 05:55:02;;;;;;;;;;;;;;;43.63;18.86;96267.69;6373213;27;20398;-67
2022/06/24 05:58:04;;;;;;;;;;;;;;;42.77;19.89;96269.16;6355093;27;19931;-67
2022/06/24 06:01:11;;;;;;;;;;;;;;;42.25;20.40;96263.41;6373124;27;20054;-67
2022/06/24 06:04:14;;;;;;;;;;;;;;;41.64;20.85;96248.41;6372417;27;19923;-66
2022/06/24 06:07:16;;;;;;;;;;;;;;;41.78;20.61;96245.56;6372980;27;20299;-67
2022/06/24 06:10:19;;;;;;;;;;;;;;;43.36;18.83;96252.19;6373015;27;20316;-67
2022/06/24 06:13:20;;;;;;;;;;;;;;;44.63;17.51;96250.94;6371692;27;19928;-67
2022/06/24 06:16:22;;;;;;;;;;;;;;;46.09;16.61;96250.16;6373211;27;19997;-67
2022/06/24 06:19:25;;;;;;;;;;;;;;;46.79;16.09;96253.72;6372400;27;20019;-67
2022/06/24 06:22:29;;;;;;;;;;;;;;;48.01;15.46;96257.34;6372474;27;20342;-67
2022/06/24 06:25:33;;;;;;;;;;;;;;;49.33;14.22;96256.22;6371820;27;20396;-67
2022/06/24 06:28:38;;;;;;;;;;;;;;;50.33;13.85;96252.63;6372490;27;19923;-67
2022/06/24 06:31:42;;;;;;;;;;;;;;;51.16;13.01;96252.78;6372494;27;19923;-68
2022/06/24 06:34:47;;;;;;;;;;;;;;;51.15;13.17;96253.94;6372203;27;19999;-67
2022/06/24 06:37:51;;;;;;;;;;;;;;;51.36;12.73;96255.47;6370679;27;20406;-67
2022/06/24 06:40:53;;;;;;;;;;;;;;;51.90;12.61;96262.56;6372037;27;19924;-66
2022/06/24 06:43:54;;;;;;;;;;;;;;;52.61;12.36;96264.47;6370937;27;19923;-66
2022/06/24 06:47:00;;;;;;;;;;;;;;;53.03;11.74;96254.75;6371833;27;19923;-66
2022/06/24 06:50:04;;;;;;;;;;;;;;;53.07;11.59;96255.59;6371692;27;19951;-67
2022/06/24 06:53:05;;;;;;;;;;;;;;;53.26;11.23;96263.75;6353609;27;19975;-67
2022/06/24 06:56:07;;;;;;;;;;;;;;;53.95;10.95;96259.22;6371680;27;19920;-67
2022/06/24 06:59:11;;;;;;;;;;;;;;;54.20;11.00;96264.94;6371997;27;19923;-66
2022/06/24 07:02:12;;;;;;;;;;;;;;;55.05;10.49;96275.44;6371216;27;19927;-66
2022/06/24 07:05:17;;;;;;;;;;;;;;;56.32;9.81;96280.19;6371861;27;19923;-66
2022/06/24 07:08:23;;;;;;;;;;;;;;;56.91;9.78;96271.69;6371666;27;19923;-67
2022/06/24 07:11:25;;;;;;;;;;;;;;;57.45;9.10;96273.16;6370806;27;19923;-66
2022/06/24 07:14:30;;;;;;;;;;;;;;;57.75;9.10;96270.31;6371653;27;19923;-66
2022/06/24 07:17:33;;;;;;;;;;;;;;;58.38;9.11;96266.25;6371323;27;19924;-67
2022/06/24 07:20:34;;;;;;;;;;;;;;;59.15;8.65;96261.72;6371103;27;19929;-67
2022/06/24 07:23:37;;;;;;;;;;;;;;;59.70;8.23;96258.19;6370966;27;19927;-67
2022/06/24 07:26:41;;;;;;;;;;;;;;;59.88;6.52;96252.16;6371602;27;19923;-66
2022/06/24 07:29:44;;;;;;;;;;;;;;;60.29;7.93;96261.38;6371426;28;19923;-67
2022/06/24 07:32:48;;;;;;;;;;;;;;;60.40;7.79;96253.38;6371462;28;20300;-66
2022/06/24 07:35:52;;;;;;;;;;;;;;;60.52;7.40;96249.03;6371973;28;20404;-66
2022/06/24 07:38:56;;;;;;;;;;;;;;;60.78;7.38;96252.84;6373583;28;19923;-66
2022/06/24 07:42:00;;;;;;;;;;;;;;;61.16;7.32;96250.22;6384850;28;19928;-66
2022/06/24 07:45:04;;;;;;;;;;;;;;;60.76;7.74;96236.25;6386649;28;19923;-66
2022/06/24 07:48:07;;;;;;;;;;;;;;;60.52;6.93;96220.63;6367367;28;19923;-67
2022/06/24 07:51:13;;;;;;;;;;;;;;;60.37;7.04;96215.28;6384002;28;19924;-67
2022/06/24 07:54:16;;;;;;;;;;;;;;;59.88;7.19;96209.56;6379508;28;19923;-66
2022/06/24 07:57:18;;;;;;;;;;;;;;;60.27;6.89;96204.97;6374711;28;19923;-66
2022/06/24 08:00:22;;;;;;;;;;;;;;;60.90;7.11;96212.31;6377240;28;19923;-66
2022/06/24 08:03:26;;;;;;;;;;;;;;;60.98;7.22;96201.53;6382271;28;19923;-67
2022/06/24 08:06:30;;;;;;;;;;;;;;;61.09;6.95;96196.38;6384798;28;19971;-67
2022/06/24 08:09:36;;;;;;;;;;;;;;;61.11;6.94;96188.19;6363454;28;19923;-66
2022/06/24 08:12:39;;;;;;;;;;;;;;;61.13;6.98;96180.00;6352358;28;19928;-66
2022/06/24 08:15:41;;;;;;;;;;;;;;;61.49;6.96;96181.81;6345749;28;19982;-67
2022/06/24 08:18:44;;;;;;;;;;;;;;;61.66;6.62;96183.31;6345817;28;19923;-67
2022/06/24 08:21:47;;;;;;;;;;;;;;;61.57;6.61;96168.94;6346126;28;19923;-67
2022/06/24 08:24:50;;;;;;;;;;;;;;;61.61;6.92;96168.84;6345763;28;20313;-67
2022/06/24 08:27:53;;;;;;;;;;;;;;;61.35;6.52;96168.00;6344024;28;19924;-67
2022/06/24 08:30:56;;;;;;;;;;;;;;;61.33;6.12;96165.63;6345223;28;20282;-66
2022/06/24 08:33:59;;;;;;;;;;;;;;;60.58;6.77;96144.94;6348926;28;19928;-67
2022/06/24 08:37:02;;;;;;;;;;;;;;;60.26;6.54;96138.03;6348450;28;20309;-68
2022/06/24 08:40:06;;;;;;;;;;;;;;;59.92;7.17;96124.28;6349712;28;19976;-67
2022/06/24 08:43:10;;;;;;;;;;;;;;;60.37;6.59;96130.03;6349485;28;19924;-67
2022/06/24 08:46:13;;;;;;;;;;;;;;;60.49;6.21;96120.00;6349786;28;19928;-67
2022/06/24 08:49:17;;;;;;;;;;;;;;;59.71;6.54;96111.38;6349384;28;19924;-66
2022/06/24 08:52:20;;;;;;;;;;;;;;;58.78;7.26;96119.03;6349022;28;19924;-67
2022/06/24 08:55:24;;;;;;;;;;;;;;;58.22;7.39;96105.47;6349155;28;19924;-66
2022/06/24 08:58:27;;;;;;;;;;;;;;;58.49;7.51;96101.75;6349052;28;19923;-66
2022/06/24 09:01:37;;;;;;;;;;;;;;;58.66;7.36;96100.59;6349184;27;19924;-66
2022/06/24 09:04:42;;;;;;;;;;;;;;;58.10;7.22;96089.88;6349660;28;20402;-67
2022/06/24 09:07:43;;;;;;;;;;;;;;;57.73;7.54;96097.31;6348796;28;20297;-68
2022/06/24 09:11:06;;;;;;;;;;;;;;;57.59;7.96;96074.91;6348665;28;20030;-66
2022/06/24 09:14:08;;;;;;;;;;;;;;;57.43;8.06;96078.34;6372481;27;19967;-67
2022/06/24 09:17:10;;;;;;;;;;;;;;;57.30;8.18;96069.63;6373642;27;19923;-67
2022/06/24 09:20:16;;;;;;;;;;;;;;;57.26;8.19;96071.72;6374153;27;19924;-68
2022/06/24 09:23:20;;;;;;;;;;;;;;;57.27;8.20;96069.69;6373779;27;20017;-67
2022/06/24 09:26:32;;;;;;;;;;;;;;;57.08;7.93;96057.03;6355831;27;20002;-68
2022/06/24 09:29:35;;;;;;;;;;;;;;;56.32;8.60;96057.09;6372820;27;19924;-68
2022/06/24 09:32:54;;;;;;;;;;;;;;;54.38;9.17;96036.88;6372544;27;19923;-67
2022/06/24 09:36:00;;;;;;;;;;;;;;;52.13;10.70;96023.06;6373404;27;19923;-68
2022/06/24 09:39:05;;;;;;;;;;;;;;;51.76;10.87;96029.59;6373014;27;19923;-67
2022/06/24 09:42:18;;;;;;;;;;;;;;;52.38;10.60;96028.84;6372807;27;19992;-67
2022/06/24 09:45:23;;;;;;;;;;;;;;;52.70;10.53;96017.78;6353753;27;20324;-67
2022/06/24 09:48:29;;;;;;;;;;;;;;;52.64;10.30;96022.16;6354019;27;20019;-67
2022/06/24 09:51:30;;;;;;;;;;;;;;;52.66;10.44;96016.91;6372325;27;19927;-66
2022/06/24 09:54:32;;;;;;;;;;;;;;;52.57;10.32;96013.69;6372311;27;19923;-67
2022/06/24 09:57:36;;;;;;;;;;;;;;;52.44;10.61;96016.84;6372619;27;19946;-67
2022/06/24 10:00:42;;;;;;;;;;;;;;;51.47;10.83;96009.69;6371748;27;19972;-66
2022/06/24 10:03:47;;;;;;;;;;;;;;;50.83;11.42;95997.78;6353506;27;20342;-66
2022/06/24 10:06:49;;;;;;;;;;;;;;;50.69;11.48;96007.63;6371843;27;20289;-67
2022/06/24 10:09:53;;;;;;;;;;;;;;;51.38;11.11;96009.19;6371825;27;19923;-67
2022/06/24 10:13:03;;;;;;;;;;;;;;;51.39;11.18;96010.81;6372553;27;20405;-66
2022/06/24 10:16:06;;;;;;;;;;;;;;;50.70;11.68;96003.63;6371962;27;19968;-66
2022/06/24 10:19:12;;;;;;;;;;;;;;;50.36;11.83;96002.78;6372351;27;20015;-68
2022/06/24 10:22:31;;;;;;;;;;;;;;;50.62;11.72;95998.31;6371622;27;19919;-66
2022/06/24 10:25:47;;;;;;;;;;;;;;;50.47;12.03;95991.72;6372325;27;19923;-66
2022/06/24 10:29:00;;;;;;;;;;;;;;;50.58;12.01;95998.25;6372268;27;19931;-66
2022/06/24 10:32:04;;;;;;;;;;;;;;;50.42;12.08;95989.25;6353257;27;19927;-69
2022/06/24 10:35:05;;;;;;;;;;;;;;;49.63;12.77;95993.66;6336424;27;19965;-68
2022/06/24 10:38:09;;;;;;;;;;;;;;;48.53;13.75;95991.19;6371898;27;19923;-66
2022/06/24 10:41:13;;;;;;;;;;;;;;;47.55;14.45;95991.28;6372160;27;19935;-67
2022/06/24 10:44:26;;;;;;;;;;;;;;;46.04;15.56;95981.47;6371246;27;19930;-66
2022/06/24 10:47:35;;;;;;;;;;;;;;;44.31;17.08;95979.47;6371873;27;20387;-67
2022/06/24 10:50:39;;;;;;;;;;;;;;;43.70;17.15;95976.25;6371818;27;19930;-67
2022/06/24 10:53:59;;;;;;;;;;;;;;;43.41;17.62;95982.59;6371805;27;20365;-67
2022/06/24 10:57:00;;;;;;;;;;;;;;;43.35;17.57;95975.59;6370017;27;19924;-66
2022/06/24 11:00:09;;;;;;;;;;;;;;;43.13;18.09;95977.44;6370607;27;20324;-66
2022/06/24 11:03:13;;;;;;;;;;;;;;;42.28;18.47;95980.78;6370701;27;19923;-66
2022/06/24 11:06:14;;;;;;;;;;;;;;;42.03;18.88;95981.59;6370080;27;20014;-67
2022/06/24 11:09:15;;;;;;;;;;;;;;;42.34;18.50;95989.75;6370428;27;19923;-67
2022/06/24 11:12:27;;;;;;;;;;;;;;;42.78;18.57;95983.09;6370293;27;19923;-67
2022/06/24 11:15:33;;;;;;;;;;;;;;;43.84;17.84;95979.59;6370727;27;20471;-67
2022/06/24 11:18:38;;;;;;;;;;;;;;;44.79;16.54;95969.75;6371056;27;19924;-67
2022/06/24 11:21:47;;;;;;;;;;;;;;;45.39;16.36;95970.25;6370437;27;19968;-67
2022/06/24 11:24:50;;;;;;;;;;;;;;;46.07;15.94;95968.84;6371547;27;19923;-67
2022/06/24 11:27:54;;;;;;;;;;;;;;;46.61;15.47;95962.91;6370684;27;20022;-67
2022/06/24 11:30:56;;;;;;;;;;;;;;;46.71;15.45;95968.00;6370951;28;19946;-68
2022/06/24 11:34:03;;;;;;;;;;;;;;;45.77;16.09;95957.97;6370788;28;20030;-67
2022/06/24 11:37:09;;;;;;;;;;;;;;;44.17;17.61;95948.41;6370882;28;19984;-68
2022/06/24 11:40:11;;;;;;;;;;;;;;;43.44;18.14;95948.69;6352366;28;19923;-68
2022/06/24 11:43:13;;;;;;;;;;;;;;;43.22;18.56;95942.25;6370571;28;19927;-67
2022/06/24 11:46:15;;;;;;;;;;;;;;;43.44;17.97;95943.13;6371139;28;19946;-67
2022/06/24 11:49:19;;;;;;;;;;;;;;;43.65;18.10;95938.47;6370411;28;19923;-68
2022/06/24 11:52:23;;;;;;;;;;;;;;;43.55;17.72;95927.00;6370916;28;20415;-67
2022/06/24 11:55:31;;;;;;;;;;;;;;;43.04;18.61;95924.09;6370306;28;19925;-67
2022/06/24 11:58:35;;;;;;;;;;;;;;;42.54;18.71;95910.84;6370867;28;20316;-68
2022/06/24 12:01:40;;;;;;;;;;;;;;;42.37;19.20;95906.16;6370392;28;20296;-67
2022/06/24 12:04:43;;;;;;;;;;;;;;;42.01;19.22;95898.19;6370110;28;19923;-67
2022/06/24 12:07:44;;;;;;;;;;;;;;;41.40;20.09;95893.34;6373765;27;20444;-66
2022/06/24 12:10:51;;;;;;;;;;;;;;;41.14;20.28;95898.00;6375353;27;19924;-68
2022/06/24 12:13:59;;;;;;;;;;;;;;;40.77;20.59;95880.78;6374523;27;20389;-68
2022/06/24 12:17:07;;;;;;;;;;;;;;;40.26;21.06;95890.34;6375812;27;20335;-67
2022/06/24 12:20:10;;;;;;;;;;;;;;;39.86;21.24;95877.22;6375299;27;20084;-67
2022/06/24 12:23:19;;;;;;;;;;;;;;;39.44;21.80;95875.66;6375278;27;19931;-68
2022/06/24 12:26:25;;;;;;;;;;;;;;;38.97;22.23;95862.00;6374407;27;19923;-67
2022/06/24 12:29:33;;;;;;;;;;;;;;;38.65;22.49;95849.16;6375029;27;19946;-67
2022/06/24 12:32:52;;;;;;;;;;;;;;;38.37;22.67;95843.56;6375001;27;19924;-67
2022/06/24 12:36:03;;;;;;;;;;;;;;;38.03;23.10;95854.88;6373792;27;19930;-68
2022/06/24 12:39:10;;;;;;;;;;;;;;;37.68;24.18;95869.94;6374943;27;19975;-67
2022/06/24 12:42:17;;;;;;;;;;;;;;;37.60;23.85;95873.38;6374938;27;19923;-68
2022/06/24 12:45:24;;;;;;;;;;;;;;;37.80;23.49;95878.56;6374662;27;19927;-67
2022/06/24 12:51:49;;;;;;;;;;;;;;;37.43;24.60;95879.34;6374487;27;19923;-68
2022/06/24 12:54:52;;;;;;;;;;;;;;;37.07;24.37;95871.56;6374537;27;20400;-67
2022/06/24 12:57:59;;;;;;;;;;;;;;;36.68;25.44;95874.44;6356951;27;20006;-68
2022/06/24 13:00:59;;;;;;;;;;;;;;;36.19;26.31;95879.78;6374127;27;19924;-67
2022/06/24 13:04:01;;;;;;;;;;;;;;;35.96;26.50;95870.38;6373196;27;19953;-68
2022/06/24 13:07:06;;;;;;;;;;;;;;;35.84;26.77;95856.25;6374187;27;19923;-69
2022/06/24 13:10:11;;;;;;;;;;;;;;;35.73;26.88;95850.00;6373914;27;19924;-68
2022/06/24 13:13:16;;;;;;;;;;;;;;;35.64;27.31;95842.69;6373644;27;19946;-68
2022/06/24 13:16:17;;;;;;;;;;;;;;;35.56;26.96;95835.91;6374188;27;19930;-67
2022/06/24 13:19:21;;;;;;;;;;;;;;;35.43;27.30;95828.28;6373016;27;19923;-68
2022/06/24 13:22:24;;;;;;;;;;;;;;;35.18;27.96;95832.81;6373874;27;19923;-67
2022/06/24 13:25:30;;;;;;;;;;;;;;;35.02;28.39;95828.50;6373806;27;19923;-68
2022/06/24 13:28:34;;;;;;;;;;;;;;;34.74;28.64;95828.06;6373158;27;19928;-68
2022/06/24 13:31:41;;;;;;;;;;;;;;;34.46;29.27;95836.84;6373763;27;19923;-67
2022/06/24 13:34:43;;;;;;;;;;;;;;;34.10;29.75;95834.16;6373637;27;19931;-68
2022/06/24 13:37:44;;;;;;;;;;;;;;;33.91;30.06;95831.94;6372371;27;19923;-68
2022/06/24 13:40:49;;;;;;;;;;;;;;;33.68;30.70;95821.56;6373408;27;20278;-68
2022/06/24 13:43:54;;;;;;;;;;;;;;;33.46;31.43;95819.91;6373101;27;19933;-68
2022/06/24 13:46:55;;;;;;;;;;;;;;;33.30;31.72;95823.69;6373478;27;20399;-68
2022/06/24 13:50:00;;;;;;;;;;;;;;;33.25;31.99;95810.03;6355444;27;19923;-69
2022/06/24 13:53:03;;;;;;;;;;;;;;;33.38;31.35;95801.34;6373076;27;19923;-67
2022/06/24 13:56:07;;;;;;;;;;;;;;;33.48;31.57;95792.34;6373135;27;19924;-68
2022/06/24 13:59:15;;;;;;;;;;;;;;;33.46;31.72;95798.09;6373134;27;20308;-67
2022/06/24 14:02:20;;;;;;;;;;;;;;;33.36;31.42;95794.53;6372005;27;19927;-68
2022/06/24 14:05:24;;;;;;;;;;;;;;;33.20;32.01;95789.03;6372697;27;19927;-67
2022/06/24 14:08:27;;;;;;;;;;;;;;;33.06;32.11;95796.88;6372850;27;19924;-67
2022/06/24 14:11:33;;;;;;;;;;;;;;;32.95;32.32;95787.03;6372367;27;19923;-68
2022/06/24 14:14:40;;;;;;;;;;;;;;;32.91;32.61;95780.47;6371720;27;19923;-68
2022/06/24 14:17:44;;;;;;;;;;;;;;;32.80;32.31;95776.06;6372232;27;19923;-68
2022/06/24 14:20:47;;;;;;;;;;;;;;;32.76;32.76;95777.72;6354170;27;19923;-67
2022/06/24 14:27:09;;;;;;;;;;;;;;;32.73;33.01;95786.41;6372419;27;20396;-68
2022/06/24 14:30:13;;;;;;;;;;;;;;;32.77;33.27;95782.88;6370136;27;19919;-68
2022/06/24 14:33:19;;;;;;;;;;;;;;;32.73;34.57;95772.81;6372101;27;20353;-68
2022/06/24 14:36:20;;;;;;;;;;;;;;;32.41;34.45;95773.69;6371554;27;20388;-68
2022/06/24 14:42:46;;;;;;;;;;;;;;;32.45;34.51;95766.66;6372007;27;20059;-68
2022/06/24 14:45:50;;;;;;;;;;;;;;;32.48;35.46;95785.22;6372092;27;19923;-67
2022/06/24 14:48:54;;;;;;;;;;;;;;;32.31;35.19;95787.28;6371716;27;19920;-67
2022/06/24 14:51:56;;;;;;;;;;;;;;;31.95;35.89;95789.75;6371027;27;19945;-68
2022/06/24 14:55:06;;;;;;;;;;;;;;;31.77;36.48;95788.25;6371715;27;20025;-67
2022/06/24 14:58:11;;;;;;;;;;;;;;;31.56;37.08;95784.50;6371480;27;19920;-67
2022/06/24 15:01:13;;;;;;;;;;;;;;;31.37;37.56;95783.28;6370672;27;19923;-67
2022/06/24 15:04:14;;;;;;;;;;;;;;;31.00;37.24;95784.78;6370447;27;19924;-67
2022/06/24 15:07:17;;;;;;;;;;;;;;;30.85;37.65;95777.25;6371576;27;19923;-68
2022/06/24 15:10:18;;;;;;;;;;;;;;;30.67;38.46;95774.84;6371462;27;19923;-68
2022/06/24 15:13:20;;;;;;;;;;;;;;;30.32;39.23;95773.34;6370276;27;20050;-68
2022/06/24 15:16:23;;;;;;;;;;;;;;;30.18;38.77;95775.56;6370511;27;19930;-67
2022/06/24 15:19:24;;;;;;;;;;;;;;;30.19;39.58;95795.38;6370695;27;19935;-68
2022/06/24 15:22:26;;;;;;;;;;;;;;;29.99;39.81;95794.00;6370426;27;19947;-68
2022/06/24 15:25:30;;;;;;;;;;;;;;;29.71;40.72;95794.09;6371477;27;20038;-66
2022/06/24 15:28:31;;;;;;;;;;;;;;;29.50;42.60;95804.56;6370856;27;19930;-67
2022/06/24 15:31:34;;;;;;;;;;;;;;;29.20;43.84;95806.75;6370712;28;19919;-67
2022/06/24 15:34:39;;;;;;;;;;;;;;;28.85;44.65;95807.69;6371154;28;20014;-67
2022/06/24 15:37:46;;;;;;;;;;;;;;;28.62;45.69;95803.97;6371207;28;19925;-67
2022/06/24 15:40:50;;;;;;;;;;;;;;;28.47;46.05;95803.66;6371319;27;19927;-67
2022/06/24 15:43:56;;;;;;;;;;;;;;;28.21;46.03;95796.84;6376564;27;20495;-68
2022/06/24 15:47:02;;;;;;;;;;;;;;;28.03;46.54;95800.50;6376190;27;19923;-67
2022/06/24 15:50:04;;;;;;;;;;;;;;;27.90;46.03;95801.53;6375491;27;20381;-67
2022/06/24 15:53:07;;;;;;;;;;;;;;;27.88;46.44;95802.84;6376220;27;19923;-67
2022/06/24 15:56:11;;;;;;;;;;;;;;;27.85;46.99;95811.41;6375993;27;19923;-67
2022/06/24 15:59:17;;;;;;;;;;;;;;;27.69;47.33;95816.44;6375467;27;19924;-68
2022/06/24 16:02:20;;;;;;;;;;;;;;;27.60;48.21;95820.53;6376068;27;19923;-68
2022/06/24 16:05:24;;;;;;;;;;;;;;;27.51;47.88;95819.19;6375746;27;20004;-68
2022/06/24 16:08:29;;;;;;;;;;;;;;;27.40;48.17;95812.72;6376138;27;19924;-68
2022/06/24 16:11:31;;;;;;;;;;;;;;;27.29;48.89;95816.22;6375086;27;19924;-68
2022/06/24 16:14:34;;;;;;;;;;;;;;;27.09;49.13;95829.97;6375086;27;19923;-67